createdAt,value
2023-05-10T00:01:21.582Z,4.40
2023-05-10T00:03:49.892Z,4.90
2023-05-10T00:06:18.221Z,4.70
2023-05-10T00:08:46.477Z,4.30
2023-05-10T00:11:14.647Z,4.70
2023-05-10T00:13:42.771Z,5.60
2023-05-10T00:16:10.985Z,4.60
2023-05-10T00:18:39.231Z,5.50
2023-05-10T00:21:07.467Z,5.10
2023-05-10T00:23:35.524Z,5.20
2023-05-10T00:26:03.639Z,4.90
2023-05-10T00:28:31.746Z,6.30
2023-05-10T00:30:59.943Z,5.60
2023-05-10T00:33:28.104Z,5.90
2023-05-10T00:35:56.357Z,5.70
2023-05-10T00:38:24.482Z,6.30
2023-05-10T00:40:52.634Z,6.00
2023-05-10T00:43:26.402Z,5.80
2023-05-10T00:45:55.154Z,5.80
2023-05-10T00:48:23.637Z,5.80
2023-05-10T00:50:51.894Z,6.00
2023-05-10T00:53:20.444Z,4.80
2023-05-10T00:55:48.683Z,6.30
2023-05-10T00:58:16.817Z,6.00
2023-05-10T01:00:47.561Z,5.50
2023-05-10T01:03:15.790Z,5.20
2023-05-10T01:05:44.000Z,5.10
2023-05-10T01:08:12.113Z,6.40
2023-05-10T01:10:40.434Z,5.30
2023-05-10T01:13:10.836Z,7.10
2023-05-10T01:15:40.065Z,7.30
2023-05-10T01:18:09.891Z,6.20
2023-05-10T01:20:49.240Z,6.10
2023-05-10T01:23:58.715Z,5.90
2023-05-10T01:26:43.880Z,5.60
2023-05-10T01:29:41.249Z,4.90
2023-05-10T01:32:30.651Z,4.80
2023-05-10T01:35:11.251Z,6.10
2023-05-10T01:37:50.340Z,6.70
2023-05-10T01:40:31.573Z,6.10
2023-05-10T01:43:04.380Z,5.80
2023-05-10T01:45:46.987Z,5.00
2023-05-10T01:48:16.174Z,5.30
2023-05-10T01:50:46.400Z,4.40
2023-05-10T01:53:19.801Z,4.50
2023-05-10T01:55:51.957Z,4.50
2023-05-10T01:58:36.302Z,5.20
2023-05-10T02:01:06.936Z,4.00
2023-05-10T02:03:37.800Z,4.30
2023-05-10T02:06:07.856Z,4.60
2023-05-10T02:08:38.242Z,4.70
2023-05-10T02:11:06.822Z,4.50
2023-05-10T02:13:37.757Z,5.00
2023-05-10T02:16:07.562Z,5.00
2023-05-10T02:18:37.694Z,3.90
2023-05-10T02:21:06.192Z,4.40
2023-05-10T02:23:36.003Z,4.20
2023-05-10T02:26:06.866Z,4.40
2023-05-10T02:28:36.645Z,5.10
2023-05-10T02:31:06.867Z,5.10
2023-05-10T02:33:35.808Z,5.50
2023-05-10T02:36:04.900Z,4.90
2023-05-10T02:38:34.349Z,5.10
2023-05-10T02:41:05.314Z,5.40
2023-05-10T02:43:34.866Z,4.40
2023-05-10T02:46:03.540Z,4.70
2023-05-10T02:48:31.877Z,5.40
2023-05-10T02:51:06.816Z,5.10
2023-05-10T02:53:39.653Z,5.60
2023-05-10T02:56:16.348Z,6.00
2023-05-10T02:58:44.589Z,6.70
2023-05-10T03:01:12.813Z,6.90
2023-05-10T03:03:40.927Z,6.90
2023-05-10T03:06:10.559Z,6.80
2023-05-10T03:08:38.908Z,6.80
2023-05-10T03:11:48.323Z,6.00
2023-05-10T03:15:02.399Z,6.80
2023-05-10T03:17:53.912Z,5.40
2023-05-10T03:20:30.325Z,5.00
2023-05-10T03:23:21.002Z,5.00
2023-05-10T03:25:51.735Z,4.90
2023-05-10T03:28:22.174Z,5.20
2023-05-10T03:30:51.174Z,4.80
2023-05-10T03:33:19.331Z,5.10
2023-05-10T03:35:48.038Z,4.50
2023-05-10T03:38:16.491Z,4.90
2023-05-10T03:40:44.639Z,5.10
2023-05-10T03:43:12.966Z,5.10
2023-05-10T03:45:41.191Z,4.80
2023-05-10T03:48:09.415Z,4.40
2023-05-10T03:50:37.607Z,5.10
2023-05-10T03:53:05.923Z,5.80
2023-05-10T03:55:37.095Z,5.10
2023-05-10T03:58:05.410Z,5.90
2023-05-10T04:00:34.552Z,6.80
2023-05-10T04:03:03.071Z,7.60
2023-05-10T04:05:31.231Z,8.40
2023-05-10T04:07:59.353Z,8.60
2023-05-10T04:10:27.567Z,6.60
2023-05-10T04:12:55.728Z,7.90
2023-05-10T04:15:24.231Z,6.90
2023-05-10T04:17:52.366Z,7.60
2023-05-10T04:20:20.504Z,7.40
2023-05-10T04:22:48.765Z,7.00
2023-05-10T04:25:16.861Z,4.80
2023-05-10T04:27:44.999Z,4.80
2023-05-10T04:30:13.526Z,5.60
2023-05-10T04:32:41.684Z,5.30
2023-05-10T04:35:11.674Z,5.20
2023-05-10T04:37:39.840Z,4.80
2023-05-10T04:40:08.890Z,5.70
2023-05-10T04:42:37.046Z,5.80
2023-05-10T04:45:06.037Z,6.30
2023-05-10T04:47:34.529Z,9.30
2023-05-10T04:50:06.633Z,7.40
2023-05-10T04:52:34.998Z,5.80
2023-05-10T04:55:03.287Z,7.40
2023-05-10T04:57:31.472Z,6.20
2023-05-10T05:00:01.020Z,7.20
2023-05-10T05:02:29.172Z,6.70
2023-05-10T05:04:58.903Z,8.20
2023-05-10T05:07:27.203Z,7.30
2023-05-10T05:09:55.381Z,7.20
2023-05-10T05:12:24.122Z,8.40
2023-05-10T05:14:52.581Z,7.80
2023-05-10T05:17:20.761Z,9.40
2023-05-10T05:19:49.017Z,6.40
2023-05-10T05:22:18.976Z,6.20
2023-05-10T05:24:47.823Z,6.50
2023-05-10T05:27:16.028Z,6.50
2023-05-10T05:29:44.175Z,5.30
2023-05-10T05:32:12.429Z,5.50
2023-05-10T05:34:40.639Z,5.90
2023-05-10T05:37:14.147Z,7.50
2023-05-10T05:39:43.421Z,5.50
2023-05-10T05:42:12.934Z,5.60
2023-05-10T05:44:41.185Z,6.00
2023-05-10T05:47:09.786Z,7.60
2023-05-10T05:49:37.902Z,7.70
2023-05-10T05:52:06.212Z,5.20
2023-05-10T05:54:34.862Z,5.40
2023-05-10T05:57:03.451Z,4.60
2023-05-10T05:59:31.572Z,3.30
2023-05-10T06:01:59.894Z,3.90
2023-05-10T06:04:28.197Z,3.80
2023-05-10T06:06:56.503Z,5.80
2023-05-10T06:09:25.647Z,3.10
2023-05-10T06:11:53.757Z,4.00
2023-05-10T06:14:22.439Z,2.90
2023-05-10T06:16:51.011Z,3.30
2023-05-10T06:19:19.241Z,3.60
2023-05-10T06:21:47.297Z,4.50
2023-05-10T06:24:15.465Z,3.10
2023-05-10T06:26:44.072Z,2.90
2023-05-10T06:29:12.198Z,3.20
2023-05-10T06:31:42.735Z,3.20
2023-05-10T06:34:12.702Z,4.10
2023-05-10T06:36:40.802Z,3.00
2023-05-10T06:39:13.107Z,10.40
2023-05-10T06:41:41.515Z,2.70
2023-05-10T06:44:09.811Z,9.90
2023-05-10T06:46:38.073Z,3.70
2023-05-10T06:49:06.189Z,10.90
2023-05-10T06:51:34.735Z,5.00
2023-05-10T06:54:02.956Z,3.30
2023-05-10T06:56:31.220Z,3.70
2023-05-10T06:58:59.541Z,3.10
2023-05-10T07:01:27.753Z,2.70
2023-05-10T07:03:56.455Z,3.20
2023-05-10T07:06:33.447Z,2.60
2023-05-10T07:09:02.076Z,3.50
2023-05-10T07:11:30.436Z,3.10
2023-05-10T07:13:58.545Z,3.30
2023-05-10T07:16:26.879Z,3.20
2023-05-10T07:18:55.282Z,3.40
2023-05-10T07:21:25.278Z,3.50
2023-05-10T07:23:53.452Z,3.60
2023-05-10T07:26:21.952Z,4.00
2023-05-10T07:28:50.043Z,3.20
2023-05-10T07:31:18.154Z,3.10
2023-05-10T07:33:46.838Z,3.30
2023-05-10T07:36:15.422Z,3.50
2023-05-10T07:38:43.600Z,3.20
2023-05-10T07:41:13.487Z,3.40
2023-05-10T07:43:41.621Z,2.90
2023-05-10T07:46:11.111Z,2.90
2023-05-10T07:48:39.366Z,2.70
2023-05-10T07:51:08.254Z,2.90
2023-05-10T07:53:36.692Z,2.70
2023-05-10T07:56:28.087Z,2.70
2023-05-10T07:59:01.216Z,2.40
2023-05-10T08:01:35.902Z,2.30
2023-05-10T08:04:04.299Z,2.50
2023-05-10T08:06:32.519Z,2.50
2023-05-10T08:09:00.855Z,2.60
2023-05-10T08:11:29.203Z,2.20
2023-05-10T08:13:57.344Z,2.50
2023-05-10T08:16:25.527Z,2.30
2023-05-10T08:18:56.235Z,2.40
2023-05-10T08:21:24.552Z,3.10
2023-05-10T08:23:52.799Z,2.30
2023-05-10T08:26:22.429Z,2.20
2023-05-10T08:28:50.624Z,2.40
2023-05-10T08:31:19.214Z,2.10
2023-05-10T08:33:47.550Z,2.60
2023-05-10T08:36:20.768Z,2.60
2023-05-10T08:38:53.130Z,2.90
2023-05-10T08:41:22.416Z,2.20
2023-05-10T08:43:52.243Z,2.80
2023-05-10T08:46:23.533Z,1.70
2023-05-10T08:48:53.217Z,2.20
2023-05-10T08:51:27.717Z,2.90
2023-05-10T08:53:56.096Z,2.50
2023-05-10T08:56:25.116Z,2.00
2023-05-10T08:58:53.685Z,2.20
2023-05-10T09:01:22.739Z,2.10
2023-05-10T09:03:54.442Z,2.20
2023-05-10T09:06:23.487Z,2.20
2023-05-10T09:08:53.797Z,2.20
2023-05-10T09:11:26.897Z,2.00
2023-05-10T09:16:24.932Z,1.90
2023-05-10T09:18:53.177Z,2.00
2023-05-10T09:21:21.637Z,2.20
2023-05-10T09:23:51.278Z,1.90
2023-05-10T09:26:24.663Z,2.00
2023-05-10T09:31:29.003Z,2.70
2023-05-10T09:33:57.271Z,1.50
2023-05-10T09:36:25.421Z,2.10
2023-05-10T09:38:53.746Z,2.10
2023-05-10T09:41:26.021Z,2.30
2023-05-10T09:43:57.408Z,2.10
2023-05-10T09:46:25.971Z,1.80
2023-05-10T09:48:54.110Z,2.00
2023-05-10T09:51:25.318Z,4.70
2023-05-10T09:54:17.727Z,2.10
2023-05-10T09:56:46.336Z,2.40
2023-05-10T09:59:14.452Z,1.80
2023-05-10T10:01:42.708Z,1.80
2023-05-10T10:04:11.850Z,1.80
2023-05-10T10:06:41.000Z,1.80
2023-05-10T10:09:20.254Z,1.80
2023-05-10T10:11:50.490Z,2.10
2023-05-10T10:14:20.037Z,1.90
2023-05-10T10:17:05.919Z,2.20
2023-05-10T10:19:38.810Z,5.80
2023-05-10T10:22:08.963Z,2.20
2023-05-10T10:24:37.341Z,1.80
2023-05-10T10:27:28.021Z,1.90
2023-05-10T10:30:24.414Z,2.00
2023-05-10T10:33:32.601Z,1.50
2023-05-10T10:36:02.919Z,2.40
2023-05-10T10:38:39.564Z,1.50
2023-05-10T10:41:27.932Z,1.50
2023-05-10T10:44:25.032Z,2.10
2023-05-10T10:47:06.970Z,1.70
2023-05-10T10:49:41.113Z,1.70
2023-05-10T10:52:34.395Z,1.60
2023-05-10T10:57:48.802Z,1.30
2023-05-10T11:00:23.971Z,1.50
2023-05-10T11:03:08.066Z,1.40
2023-05-10T11:05:45.941Z,1.50
2023-05-10T11:08:19.644Z,1.70
2023-05-10T11:11:08.327Z,1.50
2023-05-10T11:13:39.452Z,1.80
2023-05-10T11:16:26.474Z,1.70
2023-05-10T11:19:05.345Z,1.40
2023-05-10T11:21:34.980Z,1.60
2023-05-10T11:24:15.343Z,1.20
2023-05-10T11:26:43.975Z,1.70
2023-05-10T11:29:14.798Z,1.40
2023-05-10T11:31:46.204Z,1.70
2023-05-10T11:34:35.847Z,1.20
2023-05-10T11:37:04.132Z,1.30
2023-05-10T11:39:33.316Z,1.60
2023-05-10T11:42:01.504Z,1.30
2023-05-10T11:44:33.969Z,1.40
2023-05-10T11:47:02.967Z,1.90
2023-05-10T11:49:31.269Z,1.30
2023-05-10T11:52:07.997Z,1.70
2023-05-10T11:54:36.362Z,1.60
2023-05-10T11:57:05.034Z,1.50
2023-05-10T11:59:33.410Z,1.40
2023-05-10T12:02:01.766Z,1.20
2023-05-10T12:04:30.652Z,1.30
2023-05-10T12:06:59.282Z,1.40
2023-05-10T12:09:42.667Z,1.30
2023-05-10T12:12:17.928Z,1.40
2023-05-10T12:14:51.689Z,1.30
2023-05-10T12:17:19.821Z,1.50
2023-05-10T12:19:48.233Z,1.60
2023-05-10T12:22:16.397Z,1.50
2023-05-10T12:24:46.482Z,1.40
2023-05-10T12:27:15.805Z,1.50
2023-05-10T12:29:47.181Z,1.30
2023-05-10T12:32:15.340Z,1.40
2023-05-10T12:34:43.756Z,1.30
2023-05-10T12:37:11.955Z,1.20
2023-05-10T12:39:42.342Z,1.30
2023-05-10T12:42:11.532Z,1.40
2023-05-10T12:44:40.938Z,1.50
2023-05-10T12:47:09.276Z,1.30
2023-05-10T12:49:37.477Z,1.40
2023-05-10T12:52:05.712Z,1.20
2023-05-10T12:54:33.939Z,1.40
2023-05-10T12:57:02.037Z,1.10
2023-05-10T12:59:30.280Z,1.10
2023-05-10T13:01:58.987Z,1.20
2023-05-10T13:04:27.208Z,1.10
2023-05-10T13:06:59.464Z,1.30
2023-05-10T13:09:30.265Z,1.30
2023-05-10T13:11:58.770Z,1.00
2023-05-10T13:14:28.741Z,1.10
2023-05-10T13:16:57.043Z,1.50
2023-05-10T13:19:25.502Z,1.00
2023-05-10T13:21:53.763Z,1.30
2023-05-10T13:24:22.837Z,1.40
2023-05-10T13:26:51.041Z,1.30
2023-05-10T13:29:20.146Z,1.20
2023-05-10T13:31:48.534Z,1.50
2023-05-10T13:34:16.789Z,1.40
2023-05-10T13:36:44.930Z,1.10
2023-05-10T13:39:13.251Z,1.10
2023-05-10T13:41:41.502Z,1.00
2023-05-10T13:44:10.126Z,1.00
2023-05-10T13:46:39.584Z,1.20
2023-05-10T13:49:08.111Z,0.90
2023-05-10T13:51:37.084Z,1.10
2023-05-10T13:54:13.558Z,1.20
2023-05-10T13:56:43.529Z,1.30
2023-05-10T13:59:11.719Z,1.00
2023-05-10T14:01:39.895Z,1.30
2023-05-10T14:04:11.182Z,1.10
2023-05-10T14:06:39.599Z,1.10
2023-05-10T14:09:07.801Z,1.30
2023-05-10T14:11:36.019Z,1.30
2023-05-10T14:14:04.525Z,1.50
2023-05-10T14:16:32.827Z,1.20
2023-05-10T14:19:01.108Z,1.20
2023-05-10T14:21:31.681Z,1.00
2023-05-10T14:23:59.946Z,1.10
2023-05-10T14:26:28.484Z,1.00
2023-05-10T14:28:56.629Z,0.90
2023-05-10T14:31:26.386Z,1.10
2023-05-10T14:33:54.504Z,1.40
2023-05-10T14:36:23.634Z,1.30
2023-05-10T14:38:51.982Z,1.30
2023-05-10T14:41:20.092Z,1.30
2023-05-10T14:43:48.221Z,1.40
2023-05-10T14:46:16.986Z,1.20
2023-05-10T14:48:45.178Z,1.20
2023-05-10T14:51:13.390Z,1.20
2023-05-10T14:53:41.680Z,1.60
2023-05-10T14:56:09.922Z,1.50
2023-05-10T14:58:38.172Z,1.70
2023-05-10T15:01:06.448Z,3.00
2023-05-10T15:03:35.457Z,1.40
2023-05-10T15:06:05.617Z,1.20
2023-05-10T15:08:33.727Z,2.30
2023-05-10T15:11:02.126Z,1.30
2023-05-10T15:13:30.466Z,1.30
2023-05-10T15:15:58.725Z,1.50
2023-05-10T15:18:26.877Z,1.60
2023-05-10T15:20:56.322Z,1.30
2023-05-10T15:23:24.524Z,1.50
2023-05-10T15:25:56.461Z,1.90
2023-05-10T15:28:24.748Z,1.20
2023-05-10T15:30:52.858Z,1.40
2023-05-10T15:33:20.966Z,1.40
2023-05-10T15:35:49.301Z,1.50
2023-05-10T15:38:17.408Z,2.60
2023-05-10T15:40:45.519Z,1.80
2023-05-10T15:43:13.668Z,5.30
2023-05-10T15:45:42.112Z,2.90
2023-05-10T15:48:10.292Z,2.20
2023-05-10T15:50:38.614Z,1.60
2023-05-10T15:53:06.799Z,1.30
2023-05-10T15:55:35.456Z,1.70
2023-05-10T15:58:03.564Z,1.30
2023-05-10T16:00:31.737Z,1.50
2023-05-10T16:02:59.897Z,1.40
2023-05-10T16:05:32.073Z,1.30
2023-05-10T16:08:01.990Z,1.50
2023-05-10T16:10:33.332Z,1.50
2023-05-10T16:13:03.339Z,1.80
2023-05-10T16:15:31.558Z,1.40
2023-05-10T16:17:59.965Z,1.40
2023-05-10T16:20:28.451Z,1.20
2023-05-10T16:22:56.756Z,1.70
2023-05-10T16:25:24.942Z,1.40
2023-05-10T16:27:53.108Z,1.30
2023-05-10T16:30:23.656Z,1.40
2023-05-10T16:32:52.256Z,1.60
2023-05-10T16:35:23.655Z,1.50
2023-05-10T16:37:52.662Z,1.30
2023-05-10T16:40:21.075Z,1.90
2023-05-10T16:42:49.201Z,1.40
2023-05-10T16:45:17.509Z,1.50
2023-05-10T16:47:46.181Z,1.40
2023-05-10T16:50:14.992Z,1.50
2023-05-10T16:52:43.181Z,1.90
2023-05-10T16:55:11.428Z,1.70
2023-05-10T16:57:39.671Z,1.20
2023-05-10T17:00:11.879Z,1.40
2023-05-10T17:02:40.109Z,1.30
2023-05-10T17:05:08.773Z,1.60
2023-05-10T17:07:36.873Z,2.10
2023-05-10T17:10:05.726Z,1.20
2023-05-10T17:12:34.142Z,1.40
2023-05-10T17:15:02.349Z,1.30
2023-05-10T17:17:30.576Z,1.40
2023-05-10T17:19:58.877Z,1.80
2023-05-10T17:22:27.164Z,1.70
2023-05-10T17:24:55.273Z,1.80
2023-05-10T17:27:23.371Z,2.00
2023-05-10T17:29:57.171Z,3.50
2023-05-10T17:32:26.243Z,3.30
2023-05-10T17:34:54.520Z,4.00
2023-05-10T17:37:22.977Z,7.10
2023-05-10T17:39:51.087Z,4.50
2023-05-10T17:42:20.765Z,5.40
2023-05-10T17:44:48.989Z,4.40
2023-05-10T17:47:18.167Z,3.90
2023-05-10T17:49:46.260Z,6.20
2023-05-10T17:52:15.097Z,3.90
2023-05-10T17:54:46.157Z,7.90
2023-05-10T17:57:14.347Z,7.60
2023-05-10T17:59:42.603Z,4.60
2023-05-10T18:02:10.741Z,32.90
2023-05-10T18:04:43.003Z,12.40
2023-05-10T18:07:11.330Z,4.30
2023-05-10T18:09:39.447Z,2.50
2023-05-10T18:12:07.682Z,2.40
2023-05-10T18:14:40.995Z,2.20
2023-05-10T18:17:09.938Z,2.00
2023-05-10T18:19:38.468Z,2.00
2023-05-10T18:22:08.926Z,2.20
2023-05-10T18:24:39.898Z,2.60
2023-05-10T18:27:09.269Z,2.20
2023-05-10T18:29:37.513Z,2.20
2023-05-10T18:32:06.590Z,2.20
2023-05-10T18:34:34.869Z,2.70
2023-05-10T18:37:07.763Z,2.80
2023-05-10T18:39:39.207Z,2.60
2023-05-10T18:42:08.216Z,2.70
2023-05-10T18:44:36.433Z,2.90
2023-05-10T18:47:04.768Z,3.60
2023-05-10T18:49:33.006Z,3.10
2023-05-10T18:52:01.139Z,3.90
2023-05-10T18:54:30.046Z,3.80
2023-05-10T18:56:58.798Z,3.60
2023-05-10T18:59:28.106Z,3.90
2023-05-10T19:01:57.602Z,3.20
2023-05-10T19:04:27.114Z,3.40
2023-05-10T19:06:56.100Z,3.40
2023-05-10T19:09:27.101Z,4.10
2023-05-10T19:11:55.409Z,3.40
2023-05-10T19:14:25.200Z,3.40
2023-05-10T19:16:54.506Z,3.90
2023-05-10T19:19:24.680Z,4.00
2023-05-10T19:21:52.995Z,4.10
2023-05-10T19:24:23.882Z,4.10
2023-05-10T19:26:52.067Z,2.80
2023-05-10T19:29:20.285Z,3.40
2023-05-10T19:31:49.235Z,3.50
2023-05-10T19:34:17.520Z,3.40
2023-05-10T19:36:45.704Z,4.00
2023-05-10T19:39:14.007Z,4.10
2023-05-10T19:41:42.094Z,3.90
2023-05-10T19:44:10.295Z,3.40
2023-05-10T19:46:38.470Z,4.60
2023-05-10T19:49:06.717Z,3.20
2023-05-10T19:51:34.848Z,3.40
2023-05-10T19:54:03.080Z,3.30
2023-05-10T19:56:31.337Z,3.10
2023-05-10T19:58:59.675Z,3.60
2023-05-10T20:01:28.316Z,4.40
2023-05-10T20:03:56.978Z,4.00
2023-05-10T20:06:25.207Z,3.30
2023-05-10T20:08:53.441Z,3.60
2023-05-10T20:11:21.809Z,4.00
2023-05-10T20:13:49.965Z,5.10
2023-05-10T20:16:18.315Z,5.90
2023-05-10T20:18:46.756Z,5.20
2023-05-10T20:21:15.043Z,5.30
2023-05-10T20:23:43.594Z,5.30
2023-05-10T20:26:12.430Z,4.30
2023-05-10T20:28:41.940Z,5.00
2023-05-10T20:31:10.147Z,5.20
2023-05-10T20:33:38.413Z,4.60
2023-05-10T20:36:09.542Z,4.60
2023-05-10T20:38:37.900Z,4.70
2023-05-10T20:41:06.204Z,5.20
2023-05-10T20:43:34.577Z,5.60
2023-05-10T20:46:05.454Z,4.40
2023-05-10T20:48:34.276Z,4.90
2023-05-10T20:51:02.711Z,5.10
2023-05-10T20:53:31.037Z,4.10
2023-05-10T20:55:59.287Z,4.40
2023-05-10T20:58:27.432Z,4.80
2023-05-10T21:00:55.735Z,4.30
2023-05-10T21:03:23.974Z,4.20
2023-05-10T21:05:52.254Z,3.80
2023-05-10T21:08:20.418Z,4.30
2023-05-10T21:10:48.549Z,4.30
2023-05-10T21:13:17.159Z,4.30
2023-05-10T21:15:45.388Z,4.10
2023-05-10T21:18:13.558Z,3.80
2023-05-10T21:20:41.773Z,4.70
2023-05-10T21:23:09.917Z,4.10
2023-05-10T21:25:38.139Z,4.00
2023-05-10T21:28:06.321Z,4.30
2023-05-10T21:30:34.484Z,4.00
2023-05-10T21:33:03.586Z,4.50
2023-05-10T21:35:31.898Z,3.70
2023-05-10T21:38:00.065Z,3.80
2023-05-10T21:40:28.996Z,3.50
2023-05-10T21:42:57.868Z,3.30
2023-05-10T21:45:26.225Z,4.70
2023-05-10T21:47:54.666Z,4.40
2023-05-10T21:50:22.962Z,4.40
2023-05-10T21:52:51.696Z,4.30
2023-05-10T21:55:19.871Z,3.70
2023-05-10T21:57:48.126Z,3.90
2023-05-10T22:00:18.949Z,4.10
2023-05-10T22:02:47.622Z,3.10
2023-05-10T22:05:15.901Z,4.20
2023-05-10T22:07:44.235Z,3.40
2023-05-10T22:10:12.418Z,3.50
2023-05-10T22:12:40.821Z,3.50
2023-05-10T22:15:10.847Z,3.90
2023-05-10T22:17:40.417Z,4.00
2023-05-10T22:20:09.764Z,4.20
2023-05-10T22:22:38.062Z,4.10
2023-05-10T22:25:07.646Z,4.70
2023-05-10T22:27:36.053Z,4.20
2023-05-10T22:30:04.854Z,4.70
2023-05-10T22:32:33.543Z,5.10
2023-05-10T22:35:01.837Z,4.60
2023-05-10T22:37:30.071Z,4.40
2023-05-10T22:39:58.254Z,4.80
2023-05-10T22:42:26.418Z,3.90
2023-05-10T22:44:54.573Z,3.70
2023-05-10T22:47:22.701Z,3.00
2023-05-10T22:49:51.864Z,3.40
2023-05-10T22:52:20.024Z,3.00
2023-05-10T22:54:48.138Z,3.00
2023-05-10T22:57:17.245Z,3.30
2023-05-10T22:59:45.435Z,3.60
2023-05-10T23:02:15.111Z,3.60
2023-05-10T23:04:43.403Z,4.00
2023-05-10T23:07:11.800Z,4.20
2023-05-10T23:09:39.960Z,3.30
2023-05-10T23:12:08.259Z,3.50
2023-05-10T23:14:36.412Z,3.70
2023-05-10T23:17:04.548Z,3.40
2023-05-10T23:19:32.663Z,3.40
2023-05-10T23:22:00.811Z,4.70
2023-05-10T23:24:29.143Z,3.60
2023-05-10T23:26:57.349Z,4.00
2023-05-10T23:29:26.350Z,3.50
2023-05-10T23:31:54.608Z,3.80
2023-05-10T23:34:22.746Z,3.10
2023-05-10T23:36:50.969Z,4.10
2023-05-10T23:39:19.167Z,3.40
2023-05-10T23:41:47.865Z,3.90
2023-05-10T23:44:17.071Z,4.60
2023-05-10T23:46:45.235Z,3.30
2023-05-10T23:49:13.426Z,3.80
2023-05-10T23:51:41.529Z,4.10
2023-05-10T23:54:09.650Z,4.00
2023-05-10T23:56:37.757Z,4.80
2023-05-10T23:59:06.170Z,3.40
